sensor_id;sensor_type;location;lat;lon;timestamp;pressure;altitude;pressure_sealevel;temperature;humidity
54236;BME280;40151;43.606;1.472;2023-05-02T00:02:10;99826.94;;;19.82;57.00
54236;BME280;40151;43.606;1.472;2023-05-02T00:04:35;99828.72;;;19.81;57.19
54236;BME280;40151;43.606;1.472;2023-05-02T00:07:01;99818.13;;;19.81;56.96
54236;BME280;40151;43.606;1.472;2023-05-02T00:09:28;99817.34;;;19.79;57.15
54236;BME280;40151;43.606;1.472;2023-05-02T00:11:53;99813.81;;;19.79;56.95
54236;BME280;40151;43.606;1.472;2023-05-02T00:14:18;99818.28;;;19.78;56.95
54236;BME280;40151;43.606;1.472;2023-05-02T00:16:44;99810.34;;;19.78;56.88
54236;BME280;40151;43.606;1.472;2023-05-02T00:19:09;99805.03;;;19.78;56.89
54236;BME280;40151;43.606;1.472;2023-05-02T00:21:34;99805.03;;;19.78;56.83
54236;BME280;40151;43.606;1.472;2023-05-02T00:24:00;99806.00;;;19.77;56.81
54236;BME280;40151;43.606;1.472;2023-05-02T00:26:25;99804.25;;;19.76;56.98
54236;BME280;40151;43.606;1.472;2023-05-02T00:28:51;99800.69;;;19.77;56.86
54236;BME280;40151;43.606;1.472;2023-05-02T00:31:17;99798.94;;;19.76;56.94
54236;BME280;40151;43.606;1.472;2023-05-02T00:33:42;99790.25;;;19.74;56.93
54236;BME280;40151;43.606;1.472;2023-05-02T00:36:14;99788.53;;;19.73;56.95
54236;BME280;40151;43.606;1.472;2023-05-02T00:38:40;99791.94;;;19.75;56.84
54236;BME280;40151;43.606;1.472;2023-05-02T00:41:05;99784.94;;;19.74;56.92
54236;BME280;40151;43.606;1.472;2023-05-02T00:43:31;99792.13;;;19.72;56.97
54236;BME280;40151;43.606;1.472;2023-05-02T00:45:57;99791.25;;;19.71;57.01
54236;BME280;40151;43.606;1.472;2023-05-02T00:48:24;99785.13;;;19.71;56.98
54236;BME280;40151;43.606;1.472;2023-05-02T00:50:50;99782.38;;;19.72;56.87
54236;BME280;40151;43.606;1.472;2023-05-02T00:53:15;99785.97;;;19.71;57.08
54236;BME280;40151;43.606;1.472;2023-05-02T00:55:41;99774.53;;;19.71;57.01
54236;BME280;40151;43.606;1.472;2023-05-02T00:58:13;99777.25;;;19.69;56.87
54236;BME280;40151;43.606;1.472;2023-05-02T01:03:18;99764.16;;;19.66;56.92
54236;BME280;40151;43.606;1.472;2023-05-02T01:05:48;99762.38;;;19.67;56.74
54236;BME280;40151;43.606;1.472;2023-05-02T01:08:25;99767.66;;;19.67;56.77
54236;BME280;40151;43.606;1.472;2023-05-02T01:13:32;99766.88;;;19.65;56.95
54236;BME280;40151;43.606;1.472;2023-05-02T01:15:59;99767.81;;;19.64;56.84
54236;BME280;40151;43.606;1.472;2023-05-02T01:18:31;99771.38;;;19.63;56.72
54236;BME280;40151;43.606;1.472;2023-05-02T01:21:08;99771.38;;;19.63;57.02
54236;BME280;40151;43.606;1.472;2023-05-02T01:23:56;99765.16;;;19.64;56.66
54236;BME280;40151;43.606;1.472;2023-05-02T01:29:39;99767.81;;;19.64;56.60
54236;BME280;40151;43.606;1.472;2023-05-02T01:32:07;99769.69;;;19.62;56.85
54236;BME280;40151;43.606;1.472;2023-05-02T01:34:35;99769.69;;;19.62;56.94
54236;BME280;40151;43.606;1.472;2023-05-02T01:37:04;99771.38;;;19.63;56.74
54236;BME280;40151;43.606;1.472;2023-05-02T01:39:31;99775.13;;;19.58;56.67
54236;BME280;40151;43.606;1.472;2023-05-02T01:41:58;99771.69;;;19.56;56.89
54236;BME280;40151;43.606;1.472;2023-05-02T01:44:28;99769.06;;;19.56;56.89
54236;BME280;40151;43.606;1.472;2023-05-02T01:46:55;99780.59;;;19.55;56.88
54236;BME280;40151;43.606;1.472;2023-05-02T01:49:22;99770.81;;;19.56;56.58
54236;BME280;40151;43.606;1.472;2023-05-02T01:51:49;99770.94;;;19.54;56.85
54236;BME280;40151;43.606;1.472;2023-05-02T01:54:17;99772.72;;;19.54;56.77
54236;BME280;40151;43.606;1.472;2023-05-02T01:56:44;99775.28;;;19.55;56.75
54236;BME280;40151;43.606;1.472;2023-05-02T01:59:17;99772.63;;;19.55;56.82
54236;BME280;40151;43.606;1.472;2023-05-02T02:01:43;99778.00;;;19.54;56.83
54236;BME280;40151;43.606;1.472;2023-05-02T02:04:12;99781.59;;;19.53;56.66
54236;BME280;40151;43.606;1.472;2023-05-02T02:06:41;99774.53;;;19.53;56.92
54236;BME280;40151;43.606;1.472;2023-05-02T02:09:08;99776.28;;;19.53;56.86
54236;BME280;40151;43.606;1.472;2023-05-02T02:11:37;99778.16;;;19.51;56.72
54236;BME280;40151;43.606;1.472;2023-05-02T02:14:20;99774.66;;;19.50;56.67
54236;BME280;40151;43.606;1.472;2023-05-02T02:16:46;99772.00;;;19.50;56.62
54236;BME280;40151;43.606;1.472;2023-05-02T02:19:14;99771.13;;;19.50;56.74
54236;BME280;40151;43.606;1.472;2023-05-02T02:21:41;99775.59;;;19.49;56.68
54236;BME280;40151;43.606;1.472;2023-05-02T02:24:07;99781.81;;;19.48;56.54
54236;BME280;40151;43.606;1.472;2023-05-02T02:26:35;99778.38;;;19.46;56.72
54236;BME280;40151;43.606;1.472;2023-05-02T02:29:02;99784.53;;;19.47;56.72
54236;BME280;40151;43.606;1.472;2023-05-02T02:31:32;99786.31;;;19.46;56.59
54236;BME280;40151;43.606;1.472;2023-05-02T02:33:58;99789.06;;;19.44;56.93
54236;BME280;40151;43.606;1.472;2023-05-02T02:36:32;99791.63;;;19.46;56.71
54236;BME280;40151;43.606;1.472;2023-05-02T02:41:34;99793.50;;;19.44;56.88
54236;BME280;40151;43.606;1.472;2023-05-02T02:44:07;99793.50;;;19.44;56.81
54236;BME280;40151;43.606;1.472;2023-05-02T02:46:45;99796.13;;;19.44;56.67
54236;BME280;40151;43.606;1.472;2023-05-02T02:57:01;99798.16;;;19.39;56.87
54236;BME280;40151;43.606;1.472;2023-05-02T02:59:31;99799.09;;;19.38;56.79
54236;BME280;40151;43.606;1.472;2023-05-02T03:02:05;99799.09;;;19.38;56.71
54236;BME280;40151;43.606;1.472;2023-05-02T03:04:33;99792.09;;;19.37;56.59
54236;BME280;40151;43.606;1.472;2023-05-02T03:07:00;99792.09;;;19.37;56.51
54236;BME280;40151;43.606;1.472;2023-05-02T03:09:26;99793.94;;;19.35;56.72
54236;BME280;40151;43.606;1.472;2023-05-02T03:11:55;99799.22;;;19.35;56.77
54236;BME280;40151;43.606;1.472;2023-05-02T03:14:21;99797.50;;;19.34;56.47
54236;BME280;40151;43.606;1.472;2023-05-02T03:16:46;99795.81;;;19.32;56.82
54236;BME280;40151;43.606;1.472;2023-05-02T03:19:12;99802.81;;;19.34;56.78
54236;BME280;40151;43.606;1.472;2023-05-02T03:21:37;99801.09;;;19.32;56.74
54236;BME280;40151;43.606;1.472;2023-05-02T03:24:03;99801.09;;;19.32;56.73
54236;BME280;40151;43.606;1.472;2023-05-02T03:26:29;99799.38;;;19.31;56.61
54236;BME280;40151;43.606;1.472;2023-05-02T03:28:55;99802.97;;;19.30;56.60
54236;BME280;40151;43.606;1.472;2023-05-02T03:31:21;99801.25;;;19.29;56.74
54236;BME280;40151;43.606;1.472;2023-05-02T03:33:47;99790.69;;;19.29;56.62
54236;BME280;40151;43.606;1.472;2023-05-02T03:36:13;99797.81;;;19.27;56.75
54236;BME280;40151;43.606;1.472;2023-05-02T03:38:38;99796.97;;;19.27;56.73
54236;BME280;40151;43.606;1.472;2023-05-02T03:41:04;99796.09;;;19.26;56.58
54236;BME280;40151;43.606;1.472;2023-05-02T03:43:30;99797.97;;;19.24;56.81
54236;BME280;40151;43.606;1.472;2023-05-02T03:45:56;99792.69;;;19.24;56.82
54236;BME280;40151;43.606;1.472;2023-05-02T03:48:21;99797.97;;;19.24;56.57
54236;BME280;40151;43.606;1.472;2023-05-02T03:50:47;99801.53;;;19.23;56.75
54236;BME280;40151;43.606;1.472;2023-05-02T03:53:13;99799.81;;;19.22;56.62
54236;BME280;40151;43.606;1.472;2023-05-02T03:55:43;99800.81;;;19.19;56.76
54236;BME280;40151;43.606;1.472;2023-05-02T03:58:09;99800.81;;;19.19;56.85
54236;BME280;40151;43.606;1.472;2023-05-02T04:00:34;99798.09;;;19.21;56.88
54236;BME280;40151;43.606;1.472;2023-05-02T04:03:01;99799.97;;;19.19;56.89
54236;BME280;40151;43.606;1.472;2023-05-02T04:05:26;99799.97;;;19.19;56.73
54236;BME280;40151;43.606;1.472;2023-05-02T04:07:52;99799.09;;;19.18;56.88
54236;BME280;40151;43.606;1.472;2023-05-02T04:10:17;99802.63;;;19.19;56.69
54236;BME280;40151;43.606;1.472;2023-05-02T04:12:43;99793.81;;;19.18;56.58
54236;BME280;40151;43.606;1.472;2023-05-02T04:15:11;99800.03;;;19.17;56.65
54236;BME280;40151;43.606;1.472;2023-05-02T04:17:37;99800.13;;;19.16;56.64
54236;BME280;40151;43.606;1.472;2023-05-02T04:20:04;99801.06;;;19.15;56.58
54236;BME280;40151;43.606;1.472;2023-05-02T04:22:30;99805.56;;;19.13;56.67
54236;BME280;40151;43.606;1.472;2023-05-02T04:24:56;99805.56;;;19.13;56.72
54236;BME280;40151;43.606;1.472;2023-05-02T04:27:21;99807.28;;;19.14;56.65
54236;BME280;40151;43.606;1.472;2023-05-02T04:29:47;99811.69;;;19.13;56.52
54236;BME280;40151;43.606;1.472;2023-05-02T04:32:13;99811.69;;;19.13;56.63
54236;BME280;40151;43.606;1.472;2023-05-02T04:34:39;99818.00;;;19.11;56.93
54236;BME280;40151;43.606;1.472;2023-05-02T04:37:04;99825.84;;;19.12;56.63
54236;BME280;40151;43.606;1.472;2023-05-02T04:39:30;99816.28;;;19.10;56.75
54236;BME280;40151;43.606;1.472;2023-05-02T04:41:56;99819.00;;;19.08;56.53
54236;BME280;40151;43.606;1.472;2023-05-02T04:44:21;99817.16;;;19.10;56.84
54236;BME280;40151;43.606;1.472;2023-05-02T04:46:46;99816.28;;;19.10;56.68
54236;BME280;40151;43.606;1.472;2023-05-02T04:49:12;99809.28;;;19.09;56.74
54236;BME280;40151;43.606;1.472;2023-05-02T04:51:38;99812.00;;;19.07;56.65
54236;BME280;40151;43.606;1.472;2023-05-02T04:54:03;99811.06;;;19.08;56.70
54236;BME280;40151;43.606;1.472;2023-05-02T04:56:28;99810.28;;;19.06;56.71
54236;BME280;40151;43.606;1.472;2023-05-02T04:58:54;99827.03;;;19.07;56.82
54236;BME280;40151;43.606;1.472;2023-05-02T05:01:19;99836.66;;;19.08;56.73
54236;BME280;40151;43.606;1.472;2023-05-02T05:03:45;99828.78;;;19.06;56.62
54236;BME280;40151;43.606;1.472;2023-05-02T05:06:10;99840.31;;;19.05;56.82
54236;BME280;40151;43.606;1.472;2023-05-02T05:08:36;99837.72;;;19.03;56.70
54236;BME280;40151;43.606;1.472;2023-05-02T05:11:02;99844.72;;;19.04;56.93
54236;BME280;40151;43.606;1.472;2023-05-02T05:13:29;99845.66;;;19.03;56.73
54236;BME280;40151;43.606;1.472;2023-05-02T05:15:54;99840.38;;;19.03;56.84
54236;BME280;40151;43.606;1.472;2023-05-02T05:18:20;99845.69;;;19.02;56.81
54236;BME280;40151;43.606;1.472;2023-05-02T05:20:46;99849.22;;;19.02;56.71
54236;BME280;40151;43.606;1.472;2023-05-02T05:23:11;99853.59;;;19.03;56.74
54236;BME280;40151;43.606;1.472;2023-05-02T05:25:36;99860.59;;;19.04;56.87
54236;BME280;40151;43.606;1.472;2023-05-02T05:28:03;99857.16;;;19.02;56.74
54236;BME280;40151;43.606;1.472;2023-05-02T05:30:29;99857.16;;;19.02;56.61
54236;BME280;40151;43.606;1.472;2023-05-02T05:32:55;99852.66;;;19.04;56.62
54236;BME280;40151;43.606;1.472;2023-05-02T05:35:23;99860.69;;;19.03;56.84
54236;BME280;40151;43.606;1.472;2023-05-02T05:37:49;99858.88;;;19.03;56.61
54236;BME280;40151;43.606;1.472;2023-05-02T05:40:14;99859.78;;;19.02;56.61
54236;BME280;40151;43.606;1.472;2023-05-02T05:42:41;99866.81;;;19.03;56.70
54236;BME280;40151;43.606;1.472;2023-05-02T05:45:06;99856.28;;;19.02;56.68
54236;BME280;40151;43.606;1.472;2023-05-02T05:47:32;99861.47;;;19.05;56.79
54236;BME280;40151;43.606;1.472;2023-05-02T05:49:57;99855.31;;;19.04;56.39
54236;BME280;40151;43.606;1.472;2023-05-02T05:52:23;99865.88;;;19.04;56.67
54236;BME280;40151;43.606;1.472;2023-05-02T05:54:48;99863.25;;;19.04;56.88
54236;BME280;40151;43.606;1.472;2023-05-02T05:57:17;99863.25;;;19.04;56.82
54236;BME280;40151;43.606;1.472;2023-05-02T05:59:42;99865.03;;;19.04;56.72
54236;BME280;40151;43.606;1.472;2023-05-02T06:02:08;99859.66;;;19.05;56.61
54236;BME280;40151;43.606;1.472;2023-05-02T06:04:34;99861.31;;;19.08;56.64
54236;BME280;40151;43.606;1.472;2023-05-02T06:06:59;99865.75;;;19.08;56.50
54236;BME280;40151;43.606;1.472;2023-05-02T06:09:24;99864.81;;;19.09;56.70
54236;BME280;40151;43.606;1.472;2023-05-02T06:11:50;99861.25;;;19.10;56.59
54236;BME280;40151;43.606;1.472;2023-05-02T06:14:15;99864.75;;;19.10;56.50
54236;BME280;40151;43.606;1.472;2023-05-02T06:16:41;99863.88;;;19.10;56.75
54236;BME280;40151;43.606;1.472;2023-05-02T06:19:06;99860.25;;;19.12;56.47
54236;BME280;40151;43.606;1.472;2023-05-02T06:21:31;99856.75;;;19.12;56.61
54236;BME280;40151;43.606;1.472;2023-05-02T06:23:57;99857.47;;;19.15;56.63
54236;BME280;40151;43.606;1.472;2023-05-02T06:26:23;99863.66;;;19.14;56.71
54236;BME280;40151;43.606;1.472;2023-05-02T06:28:48;99869.06;;;19.13;56.34
54236;BME280;40151;43.606;1.472;2023-05-02T06:31:13;99866.31;;;19.14;56.67
54236;BME280;40151;43.606;1.472;2023-05-02T06:33:40;99865.47;;;19.14;56.65
54236;BME280;40151;43.606;1.472;2023-05-02T06:36:06;99864.47;;;19.16;56.67
54236;BME280;40151;43.606;1.472;2023-05-02T06:38:32;99872.41;;;19.16;56.53
54236;BME280;40151;43.606;1.472;2023-05-02T06:40:57;99865.47;;;19.14;56.60
54236;BME280;40151;43.606;1.472;2023-05-02T06:43:22;99873.34;;;19.15;56.78
54236;BME280;40151;43.606;1.472;2023-05-02T06:45:51;99871.53;;;19.16;56.65
54236;BME280;40151;43.606;1.472;2023-05-02T06:48:17;99875.13;;;19.15;56.60
54236;BME280;40151;43.606;1.472;2023-05-02T06:50:42;99871.59;;;19.14;56.62
54236;BME280;40151;43.606;1.472;2023-05-02T06:53:08;99868.94;;;19.14;56.82
54236;BME280;40151;43.606;1.472;2023-05-02T06:55:33;99871.59;;;19.14;56.47
54236;BME280;40151;43.606;1.472;2023-05-02T06:57:59;99873.13;;;19.20;56.42
54236;BME280;40151;43.606;1.472;2023-05-02T07:00:28;99870.47;;;19.20;56.58
54236;BME280;40151;43.606;1.472;2023-05-02T07:02:53;99866.06;;;19.21;56.46
54236;BME280;40151;43.606;1.472;2023-05-02T07:05:18;99865.94;;;19.22;56.38
54236;BME280;40151;43.606;1.472;2023-05-02T07:07:44;99853.53;;;19.24;56.30
54236;BME280;40151;43.606;1.472;2023-05-02T07:10:10;99860.53;;;19.25;56.64
54236;BME280;40151;43.606;1.472;2023-05-02T07:12:37;99855.09;;;19.28;56.44
54236;BME280;40151;43.606;1.472;2023-05-02T07:15:04;99862.13;;;19.29;56.46
54236;BME280;40151;43.606;1.472;2023-05-02T07:17:30;99855.88;;;19.30;56.41
54236;BME280;40151;43.606;1.472;2023-05-02T07:19:56;99861.19;;;19.30;56.36
54236;BME280;40151;43.606;1.472;2023-05-02T07:22:21;99860.25;;;19.31;56.40
54236;BME280;40151;43.606;1.472;2023-05-02T07:24:47;99866.31;;;19.34;56.43
54236;BME280;40151;43.606;1.472;2023-05-02T07:27:12;99860.00;;;19.36;56.18
54236;BME280;40151;43.606;1.472;2023-05-02T07:29:38;99867.88;;;19.38;56.33
54236;BME280;40151;43.606;1.472;2023-05-02T07:32:04;99863.59;;;19.35;56.03
54236;BME280;40151;43.606;1.472;2023-05-02T07:34:30;99865.25;;;19.38;56.09
54236;BME280;40151;43.606;1.472;2023-05-02T07:36:57;99861.59;;;19.40;56.37
54236;BME280;40151;43.606;1.472;2023-05-02T07:39:23;99870.22;;;19.44;56.19
54236;BME280;40151;43.606;1.472;2023-05-02T07:41:52;99877.25;;;19.45;56.16
54236;BME280;40151;43.606;1.472;2023-05-02T07:44:17;99879.75;;;19.48;56.04
54236;BME280;40151;43.606;1.472;2023-05-02T07:46:43;99877.09;;;19.48;56.01
54236;BME280;40151;43.606;1.472;2023-05-02T07:49:08;99872.59;;;19.50;56.07
54236;BME280;40151;43.606;1.472;2023-05-02T07:51:34;99874.28;;;19.51;56.23
54236;BME280;40151;43.606;1.472;2023-05-02T07:53:59;99875.09;;;19.53;56.09
54236;BME280;40151;43.606;1.472;2023-05-02T07:56:25;99874.16;;;19.54;56.19
54236;BME280;40151;43.606;1.472;2023-05-02T07:58:51;99879.34;;;19.56;56.06
54236;BME280;40151;43.606;1.472;2023-05-02T08:01:17;99867.94;;;19.55;56.14
54236;BME280;40151;43.606;1.472;2023-05-02T08:03:43;99872.28;;;19.56;56.28
54236;BME280;40151;43.606;1.472;2023-05-02T08:06:09;99869.56;;;19.58;56.18
54236;BME280;40151;43.606;1.472;2023-05-02T08:08:35;99870.41;;;19.58;56.09
54236;BME280;40151;43.606;1.472;2023-05-02T08:11:00;99861.56;;;19.59;56.19
54236;BME280;40151;43.606;1.472;2023-05-02T08:13:26;99871.22;;;19.61;56.23
54236;BME280;40151;43.606;1.472;2023-05-02T08:15:51;99873.88;;;19.61;56.28
54236;BME280;40151;43.606;1.472;2023-05-02T08:18:24;99873.69;;;19.64;56.15
54236;BME280;40151;43.606;1.472;2023-05-02T08:20:50;99861.41;;;19.63;56.26
54236;BME280;40151;43.606;1.472;2023-05-02T08:23:15;99863.09;;;19.64;56.11
54236;BME280;40151;43.606;1.472;2023-05-02T08:25:41;99869.19;;;19.66;56.03
54236;BME280;40151;43.606;1.472;2023-05-02T08:28:06;99865.63;;;19.67;56.21
54236;BME280;40151;43.606;1.472;2023-05-02T08:30:32;99863.81;;;19.67;56.02
54236;BME280;40151;43.606;1.472;2023-05-02T08:32:57;99860.25;;;19.68;55.97
54236;BME280;40151;43.606;1.472;2023-05-02T08:35:22;99860.16;;;19.70;56.09
54236;BME280;40151;43.606;1.472;2023-05-02T08:37:48;99867.09;;;19.72;56.00
54236;BME280;40151;43.606;1.472;2023-05-02T08:40:13;99861.78;;;19.72;55.84
54236;BME280;40151;43.606;1.472;2023-05-02T08:42:42;99874.97;;;19.74;55.97
54236;BME280;40151;43.606;1.472;2023-05-02T08:45:10;99874.84;;;19.77;56.11
54236;BME280;40151;43.606;1.472;2023-05-02T08:47:37;99874.84;;;19.77;56.08
54236;BME280;40151;43.606;1.472;2023-05-02T08:50:05;99877.38;;;19.79;56.17
54236;BME280;40151;43.606;1.472;2023-05-02T08:52:31;99890.56;;;19.80;56.04
54236;BME280;40151;43.606;1.472;2023-05-02T08:55:00;99881.66;;;19.81;56.09
54236;BME280;40151;43.606;1.472;2023-05-02T08:57:28;99884.25;;;19.83;56.01
54236;BME280;40151;43.606;1.472;2023-05-02T08:59:53;99879.81;;;19.83;55.86
54236;BME280;40151;43.606;1.472;2023-05-02T09:02:41;99889.47;;;19.84;56.16
54236;BME280;40151;43.606;1.472;2023-05-02T09:05:11;99884.13;;;19.86;56.05
54236;BME280;40151;43.606;1.472;2023-05-02T09:07:44;99881.38;;;19.88;55.94
54236;BME280;40151;43.606;1.472;2023-05-02T09:10:12;99869.84;;;19.89;55.91
54236;BME280;40151;43.606;1.472;2023-05-02T09:12:37;99868.91;;;19.90;56.03
54236;BME280;40151;43.606;1.472;2023-05-02T09:15:14;99868.81;;;19.91;56.05
54236;BME280;40151;43.606;1.472;2023-05-02T09:17:45;99870.56;;;19.92;55.93
54236;BME280;40151;43.606;1.472;2023-05-02T09:20:13;99868.75;;;19.93;55.87
54236;BME280;40151;43.606;1.472;2023-05-02T09:22:40;99869.63;;;19.93;55.86
54236;BME280;40151;43.606;1.472;2023-05-02T09:25:11;99865.16;;;19.94;56.14
54236;BME280;40151;43.606;1.472;2023-05-02T09:30:21;99866.84;;;19.96;56.06
54236;BME280;40151;43.606;1.472;2023-05-02T09:32:48;99870.19;;;20.00;55.97
54236;BME280;40151;43.606;1.472;2023-05-02T09:35:15;99868.34;;;20.02;55.97
54236;BME280;40151;43.606;1.472;2023-05-02T09:37:56;99870.03;;;20.03;56.19
54236;BME280;40151;43.606;1.472;2023-05-02T09:40:23;99866.44;;;20.04;56.18
54236;BME280;40151;43.606;1.472;2023-05-02T09:42:49;99859.31;;;20.06;56.18
54236;BME280;40151;43.606;1.472;2023-05-02T09:45:25;99862.72;;;20.08;56.39
54236;BME280;40151;43.606;1.472;2023-05-02T09:47:51;99860.00;;;20.10;56.18
54236;BME280;40151;43.606;1.472;2023-05-02T09:50:34;99861.72;;;20.11;56.38
54236;BME280;40151;43.606;1.472;2023-05-02T09:53:09;99859.84;;;20.13;56.39
54236;BME280;40151;43.606;1.472;2023-05-02T09:55:36;99857.03;;;20.16;56.48
54236;BME280;40151;43.606;1.472;2023-05-02T09:58:01;99856.09;;;20.17;56.79
54236;BME280;40151;43.606;1.472;2023-05-02T10:00:43;99846.34;;;20.18;56.57
54236;BME280;40151;43.606;1.472;2023-05-02T10:03:09;99851.50;;;20.21;56.53
54236;BME280;40151;43.606;1.472;2023-05-02T10:05:37;99846.97;;;20.23;56.53
54236;BME280;40151;43.606;1.472;2023-05-02T10:08:04;99839.88;;;20.23;56.34
54236;BME280;40151;43.606;1.472;2023-05-02T10:10:32;99837.16;;;20.25;56.25
54236;BME280;40151;43.606;1.472;2023-05-02T10:13:00;99840.56;;;20.27;55.91
54236;BME280;40151;43.606;1.472;2023-05-02T10:15:30;99836.97;;;20.28;56.10
54236;BME280;40151;43.606;1.472;2023-05-02T10:17:57;99836.03;;;20.29;56.07
54236;BME280;40151;43.606;1.472;2023-05-02T10:20:31;99828.09;;;20.29;56.21
54236;BME280;40151;43.606;1.472;2023-05-02T10:22:59;99826.38;;;20.28;56.05
54236;BME280;40151;43.606;1.472;2023-05-02T10:25:27;99818.38;;;20.30;56.02
54236;BME280;40151;43.606;1.472;2023-05-02T10:27:55;99813.75;;;20.33;56.09
54236;BME280;40151;43.606;1.472;2023-05-02T10:30:22;99819.06;;;20.33;56.17
54236;BME280;40151;43.606;1.472;2023-05-02T10:32:48;99818.91;;;20.36;56.15
54236;BME280;40151;43.606;1.472;2023-05-02T10:35:14;99824.22;;;20.36;55.97
54236;BME280;40151;43.606;1.472;2023-05-02T10:37:40;99819.66;;;20.38;55.95
54236;BME280;40151;43.606;1.472;2023-05-02T10:40:10;99813.34;;;20.41;56.08
54236;BME280;40151;43.606;1.472;2023-05-02T10:42:37;99799.22;;;20.41;55.91
54236;BME280;40151;43.606;1.472;2023-05-02T10:45:04;99810.63;;;20.43;56.11
54236;BME280;40151;43.606;1.472;2023-05-02T10:47:35;99810.63;;;20.43;55.75
54236;BME280;40151;43.606;1.472;2023-05-02T10:50:02;99814.91;;;20.45;55.80
54236;BME280;40151;43.606;1.472;2023-05-02T10:52:29;99814.81;;;20.47;55.92
54236;BME280;40151;43.606;1.472;2023-05-02T11:00:33;99805.75;;;20.51;55.84
54236;BME280;40151;43.606;1.472;2023-05-02T11:02:59;99795.16;;;20.51;55.88
54236;BME280;40151;43.606;1.472;2023-05-02T11:05:25;99800.31;;;20.54;55.96
54236;BME280;40151;43.606;1.472;2023-05-02T11:10:41;99777.22;;;20.56;55.98
54236;BME280;40151;43.606;1.472;2023-05-02T11:13:07;99785.09;;;20.58;55.68
54236;BME280;40151;43.606;1.472;2023-05-02T11:18:07;99771.72;;;20.59;55.73
54236;BME280;40151;43.606;1.472;2023-05-02T11:20:38;99771.66;;;20.61;55.79
54236;BME280;40151;43.606;1.472;2023-05-02T11:25:43;99766.28;;;20.62;55.78
54236;BME280;40151;43.606;1.472;2023-05-02T11:28:44;99765.25;;;20.65;55.87
54236;BME280;40151;43.606;1.472;2023-05-02T11:34:16;99751.91;;;20.66;55.69
54236;BME280;40151;43.606;1.472;2023-05-02T11:36:41;99744.78;;;20.67;55.76
54236;BME280;40151;43.606;1.472;2023-05-02T11:39:17;99750.03;;;20.69;55.97
54236;BME280;40151;43.606;1.472;2023-05-02T11:41:43;99752.59;;;20.70;55.87
54236;BME280;40151;43.606;1.472;2023-05-02T11:44:09;99755.16;;;20.72;55.94
54236;BME280;40151;43.606;1.472;2023-05-02T11:46:40;99749.88;;;20.72;56.05
54236;BME280;40151;43.606;1.472;2023-05-02T11:49:06;99753.28;;;20.74;55.66
54236;BME280;40151;43.606;1.472;2023-05-02T11:51:34;99754.97;;;20.75;55.53
54236;BME280;40151;43.606;1.472;2023-05-02T11:53:59;99750.56;;;20.75;55.92
54236;BME280;40151;43.606;1.472;2023-05-02T11:56:26;99737.19;;;20.77;55.77
54236;BME280;40151;43.606;1.472;2023-05-02T11:58:59;99755.66;;;20.78;55.91
54236;BME280;40151;43.606;1.472;2023-05-02T12:01:25;99745.94;;;20.79;55.81
54236;BME280;40151;43.606;1.472;2023-05-02T12:04:03;99744.97;;;20.80;55.87
54236;BME280;40151;43.606;1.472;2023-05-02T12:06:31;99745.75;;;20.82;55.80
54236;BME280;40151;43.606;1.472;2023-05-02T12:09:14;99736.88;;;20.83;55.93
54236;BME280;40151;43.606;1.472;2023-05-02T12:11:44;99733.28;;;20.84;55.87
54236;BME280;40151;43.606;1.472;2023-05-02T12:14:09;99741.16;;;20.86;55.76
54236;BME280;40151;43.606;1.472;2023-05-02T12:16:35;99742.88;;;20.87;55.87
54236;BME280;40151;43.606;1.472;2023-05-02T12:19:01;99733.97;;;20.88;55.82
54236;BME280;40151;43.606;1.472;2023-05-02T12:21:28;99740.13;;;20.88;55.86
54236;BME280;40151;43.606;1.472;2023-05-02T12:23:55;99739.22;;;20.89;55.80
54236;BME280;40151;43.606;1.472;2023-05-02T12:26:24;99738.25;;;20.90;55.79
54236;BME280;40151;43.606;1.472;2023-05-02T12:28:54;99736.38;;;20.92;55.97
54236;BME280;40151;43.606;1.472;2023-05-02T12:31:20;99730.09;;;20.93;55.85
54236;BME280;40151;43.606;1.472;2023-05-02T12:33:46;99735.34;;;20.95;55.96
54236;BME280;40151;43.606;1.472;2023-05-02T12:36:17;99730.91;;;20.96;55.89
54236;BME280;40151;43.606;1.472;2023-05-02T12:38:56;99745.88;;;20.97;55.73
54236;BME280;40151;43.606;1.472;2023-05-02T12:41:37;99738.75;;;20.97;55.88
54236;BME280;40151;43.606;1.472;2023-05-02T12:44:03;99730.72;;;20.99;55.95
54236;BME280;40151;43.606;1.472;2023-05-02T12:46:29;99714.78;;;20.99;55.80
54236;BME280;40151;43.606;1.472;2023-05-02T12:49:08;99721.81;;;21.00;55.92
54236;BME280;40151;43.606;1.472;2023-05-02T12:51:35;99730.56;;;21.02;55.83
54236;BME280;40151;43.606;1.472;2023-05-02T12:54:01;99733.09;;;21.03;55.96
54236;BME280;40151;43.606;1.472;2023-05-02T12:56:26;99732.19;;;21.04;55.82
54236;BME280;40151;43.606;1.472;2023-05-02T12:58:56;99726.75;;;21.06;55.94
54236;BME280;40151;43.606;1.472;2023-05-02T13:01:25;99728.50;;;21.07;55.82
54236;BME280;40151;43.606;1.472;2023-05-02T13:03:51;99719.59;;;21.08;55.84
54236;BME280;40151;43.606;1.472;2023-05-02T13:06:16;99715.13;;;21.09;55.77
54236;BME280;40151;43.606;1.472;2023-05-02T13:08:42;99721.28;;;21.09;55.80
54236;BME280;40151;43.606;1.472;2023-05-02T13:11:08;99717.69;;;21.10;55.80
54236;BME280;40151;43.606;1.472;2023-05-02T13:13:34;99703.47;;;21.11;55.81
54236;BME280;40151;43.606;1.472;2023-05-02T13:16:00;99702.53;;;21.12;55.69
54236;BME280;40151;43.606;1.472;2023-05-02T13:18:25;99699.78;;;21.14;55.75
54236;BME280;40151;43.606;1.472;2023-05-02T13:20:52;99700.66;;;21.14;55.70
54236;BME280;40151;43.606;1.472;2023-05-02T13:23:17;99698.84;;;21.15;55.80
54236;BME280;40151;43.606;1.472;2023-05-02T13:25:43;99701.41;;;21.16;55.57
54236;BME280;40151;43.606;1.472;2023-05-02T13:28:08;99704.94;;;21.17;55.86
54236;BME280;40151;43.606;1.472;2023-05-02T13:30:34;99700.47;;;21.17;55.74
54236;BME280;40151;43.606;1.472;2023-05-02T13:32:59;99702.94;;;21.21;55.80
54236;BME280;40151;43.606;1.472;2023-05-02T13:35:25;99695.94;;;21.19;55.66
54236;BME280;40151;43.606;1.472;2023-05-02T13:37:50;99690.44;;;21.23;55.77
54236;BME280;40151;43.606;1.472;2023-05-02T13:40:16;99700.09;;;21.24;55.64